Time;durP1;ratioP1;P1;durP2;ratioP2;P2;SDS_P1;SDS_P2;PMS_P1;PMS_P2;Temp;Humidity;BMP_temperature;BMP_pressure;BME280_temperature;BME280_humidity;BME280_pressure;Samples;Min_cycle;Max_cycle;Signal;HPM_P1;HPM_P2
2023/07/02 00:00:12;;;;;;;6.30;2.72;;;18.40;92.20;;;18.87;68.27;99686.63;4954987;29;20055;-77
2023/07/02 00:02:39;;;;;;;6.10;3.08;;;18.40;92.30;;;18.86;68.12;99679.63;4945471;28;20520;-77
2023/07/02 00:05:08;;;;;;;6.68;2.80;;;18.40;92.00;;;18.87;68.24;99677.72;4943750;29;20126;-78
2023/07/02 00:07:37;;;;;;;8.30;3.30;;;18.40;92.40;;;18.86;68.18;99685.03;4934531;29;20086;-77
2023/07/02 00:10:05;;;;;;;6.45;2.90;;;18.40;92.20;;;18.88;68.10;99688.22;4935867;29;20079;-78
2023/07/02 00:12:33;;;;;;;6.80;2.67;;;18.40;92.20;;;18.83;68.29;99688.28;4936611;29;20043;-77
2023/07/02 00:15:01;;;;;;;7.22;2.85;;;18.30;92.20;;;18.83;68.20;99685.59;4943586;29;20048;-77
2023/07/02 00:17:28;;;;;;;8.65;3.33;;;18.40;92.20;;;18.86;68.00;99689.63;4935675;29;20122;-77
2023/07/02 00:19:55;;;;;;;8.15;2.97;;;18.40;92.00;;;18.85;67.96;99688.03;4935518;29;20044;-78
2023/07/02 00:22:22;;;;;;;7.50;3.05;;;18.40;92.00;;;18.78;68.36;99689.13;4935199;29;20500;-77
2023/07/02 00:24:55;;;;;;;5.75;2.80;;;18.30;92.10;;;18.80;68.01;99688.88;4935683;29;20576;-77
2023/07/02 00:27:22;;;;;;;7.88;3.15;;;18.30;92.00;;;18.77;68.05;99684.03;4937339;29;20044;-77
2023/07/02 00:29:50;;;;;;;6.88;3.03;;;18.30;92.10;;;18.78;67.83;99678.31;4940876;28;20043;-77
2023/07/02 00:32:17;;;;;;;7.65;3.58;;;18.30;92.10;;;18.77;67.76;99682.13;4935057;29;20043;-77
2023/07/02 00:34:44;;;;;;;5.57;3.35;;;18.30;92.00;;;18.80;67.85;99688.06;4934169;29;20044;-77
2023/07/02 00:37:12;;;;;;;8.10;3.40;;;18.30;92.10;;;18.81;67.93;99682.38;4935472;29;20134;-77
2023/07/02 00:39:39;;;;;;;7.32;3.10;;;18.30;92.10;;;18.82;67.67;99677.78;4935306;29;20071;-77
2023/07/02 00:42:11;;;;;;;7.95;3.53;;;18.40;91.70;;;18.80;67.57;99680.78;4942266;29;20048;-77
2023/07/02 00:44:41;;;;;;;8.98;3.22;;;18.30;91.70;;;18.78;67.60;99677.53;4947429;29;20099;-77
2023/07/02 00:47:08;;;;;;;7.18;3.50;;;18.30;91.60;;;18.74;67.77;99681.91;4954416;28;20044;-77
2023/07/02 00:49:36;;;;;;;11.60;3.88;;;18.30;91.70;;;18.74;67.46;99677.31;4952930;29;20113;-78
2023/07/02 00:52:04;;;;;;;8.95;3.65;;;18.30;91.50;;;18.75;67.63;99675.41;4952019;28;20570;-77
2023/07/02 00:54:31;;;;;;;7.32;3.85;;;18.30;91.60;;;18.70;67.22;99684.38;4951108;29;20051;-77
2023/07/02 00:57:02;;;;;;;8.75;3.63;;;18.20;91.40;;;18.71;67.17;99680.56;4954273;28;20143;-77
2023/07/02 00:59:31;;;;;;;12.90;4.13;;;18.20;91.40;;;18.70;67.38;99678.16;4940857;29;20066;-78
2023/07/02 01:01:58;;;;;;;12.48;3.67;;;18.20;91.50;;;18.68;67.50;99683.81;4951914;29;20385;-77
2023/07/02 01:04:27;;;;;;;8.30;3.55;;;18.20;91.30;;;18.66;67.15;99674.38;4944335;29;20156;-77
2023/07/02 01:06:57;;;;;;;7.50;3.63;;;18.20;91.40;;;18.63;67.12;99667.63;4949637;29;20064;-77
2023/07/02 01:09:26;;;;;;;10.87;3.73;;;18.20;91.40;;;18.60;67.13;99662.81;4949456;29;20078;-77
2023/07/02 01:11:58;;;;;;;8.40;3.80;;;18.10;91.20;;;18.57;66.89;99667.97;4936440;29;20386;-77
2023/07/02 01:14:31;;;;;;;9.10;3.90;;;18.10;91.10;;;18.53;66.80;99668.53;4943278;29;20511;-77
2023/07/02 01:16:59;;;;;;;11.38;3.95;;;18.10;91.00;;;18.50;67.33;99661.03;4932157;29;20123;-77
2023/07/02 01:19:51;;;;;;;7.60;4.00;;;18.10;91.30;;;18.55;67.31;99665.56;4943251;29;20146;-78
2023/07/02 01:22:20;;;;;;;8.05;3.85;;;18.10;91.40;;;18.56;67.03;99660.97;4953520;29;20074;-77
2023/07/02 01:24:48;;;;;;;10.10;3.60;;;18.10;91.20;;;18.52;66.83;99656.13;4952500;29;20106;-77
2023/07/02 01:27:16;;;;;;;10.00;4.50;;;18.00;91.10;;;18.38;66.66;99647.06;4948200;29;20134;-78
2023/07/02 01:29:46;;;;;;;9.00;4.13;;;17.90;90.80;;;18.33;66.91;99635.50;4944086;29;20043;-77
2023/07/02 01:32:14;;;;;;;10.63;4.38;;;17.90;91.00;;;18.34;66.67;99643.31;4951937;29;20079;-77
2023/07/02 01:34:43;;;;;;;11.68;4.05;;;17.90;91.00;;;18.32;66.96;99647.41;4953658;29;20466;-77
2023/07/02 01:37:11;;;;;;;13.05;4.55;;;17.80;91.00;;;18.29;67.04;99640.66;4953576;29;20428;-77
2023/07/02 01:39:38;;;;;;;12.77;4.75;;;17.80;91.00;;;18.30;66.59;99639.59;4953441;28;20049;-77
2023/07/02 01:42:11;;;;;;;9.52;4.20;;;17.80;90.80;;;18.28;66.87;99649.84;4950571;28;20086;-77
2023/07/02 01:44:39;;;;;;;10.35;4.32;;;17.80;91.20;;;18.31;66.63;99665.50;4946397;29;20050;-77
2023/07/02 01:47:07;;;;;;;9.95;4.30;;;17.80;91.00;;;18.28;66.70;99669.56;4951803;29;20039;-77
2023/07/02 01:49:34;;;;;;;8.00;4.50;;;17.80;91.00;;;18.30;66.58;99684.66;4933951;29;20048;-77
2023/07/02 01:52:04;;;;;;;12.95;4.32;;;17.80;91.10;;;18.30;66.91;99685.50;4932462;29;20051;-77
2023/07/02 01:54:34;;;;;;;12.10;4.53;;;17.80;91.20;;;18.29;66.74;99683.84;4932704;29;20044;-77
2023/07/02 01:57:01;;;;;;;8.57;4.57;;;17.80;91.20;;;18.28;66.84;99684.94;4933214;29;20051;-77
2023/07/02 01:59:28;;;;;;;14.32;4.63;;;17.80;91.30;;;18.23;66.85;99684.97;4932699;29;20527;-77
2023/07/02 02:01:55;;;;;;;14.55;4.82;;;17.80;91.00;;;18.26;66.73;99684.44;4933519;29;20535;-77
2023/07/02 02:04:22;;;;;;;9.38;4.47;;;17.80;91.10;;;18.26;66.65;99679.03;4932722;29;20102;-77
2023/07/02 02:06:51;;;;;;;15.55;4.75;;;17.80;91.10;;;18.26;66.75;99679.03;4933802;29;20052;-77
2023/07/02 02:09:20;;;;;;;13.85;4.88;;;17.80;90.80;;;18.26;66.22;99689.84;4932312;29;20043;-77
2023/07/02 02:11:51;;;;;;;13.50;5.68;;;17.80;90.60;;;18.25;66.02;99689.03;4931326;29;20048;-77
2023/07/02 02:14:19;;;;;;;18.88;5.93;;;17.80;90.40;;;18.16;65.46;99695.31;4941511;29;20048;-77
2023/07/02 02:16:46;;;;;;;11.77;5.43;;;17.70;90.00;;;18.11;65.65;99698.84;4952712;29;20049;-77
2023/07/02 02:19:15;;;;;;;12.48;5.63;;;17.70;89.90;;;18.14;65.95;99700.16;4952496;28;20082;-77
2023/07/02 02:21:43;;;;;;;17.63;5.72;;;17.70;90.10;;;18.16;65.67;99700.69;4950964;29;20070;-78
2023/07/02 02:24:10;;;;;;;17.17;6.45;;;17.70;90.00;;;18.18;65.34;99701.22;4952794;29;20126;-77
2023/07/02 02:26:39;;;;;;;16.45;6.28;;;17.70;89.70;;;18.17;65.17;99705.81;4952581;29;20411;-77
2023/07/02 02:29:06;;;;;;;14.88;6.57;;;17.70;89.30;;;18.16;65.21;99711.50;4948206;28;20131;-77
2023/07/02 02:31:33;;;;;;;17.30;6.88;;;17.70;89.40;;;18.17;65.05;99707.72;4944682;29;20479;-77
2023/07/02 02:34:02;;;;;;;22.65;7.95;;;17.70;89.50;;;18.15;64.87;99704.47;4951129;29;20058;-77
2023/07/02 02:36:29;;;;;;;17.80;6.90;;;17.60;89.30;;;18.17;64.80;99702.31;4951148;29;20099;-77
2023/07/02 02:38:56;;;;;;;17.38;7.15;;;17.70;89.30;;;18.19;64.51;99706.31;4952350;28;20078;-77
2023/07/02 02:41:26;;;;;;;12.32;7.00;;;17.70;89.00;;;18.18;64.67;99712.00;4950711;29;20542;-77
2023/07/02 02:43:55;;;;;;;14.68;7.40;;;17.70;89.20;;;18.17;64.93;99708.50;4950791;29;20146;-77
2023/07/02 02:46:24;;;;;;;19.55;7.75;;;17.70;89.20;;;18.15;64.42;99705.28;4940562;29;20532;-78
2023/07/02 02:48:52;;;;;;;22.27;8.32;;;17.70;88.90;;;18.12;64.43;99708.53;4945490;29;20051;-77
2023/07/02 02:51:19;;;;;;;21.55;8.05;;;17.70;88.70;;;18.14;64.56;99708.25;4950698;29;20051;-77
2023/07/02 02:53:47;;;;;;;17.38;7.57;;;17.70;88.80;;;18.15;64.72;99699.06;4950888;29;20043;-77
2023/07/02 02:56:14;;;;;;;17.90;8.60;;;17.70;89.10;;;18.13;64.24;99703.94;4952209;28;20154;-77
2023/07/02 02:58:41;;;;;;;21.98;9.07;;;17.60;88.60;;;18.08;64.44;99702.09;4950817;29;20047;-77
2023/07/02 03:01:10;;;;;;;22.17;8.70;;;17.60;88.60;;;18.04;64.50;99705.63;4934682;29;20593;-78
2023/07/02 03:03:40;;;;;;;22.30;9.07;;;17.60;88.80;;;17.88;64.56;99705.72;4938331;29;20050;-77
2023/07/02 03:06:07;;;;;;;18.77;8.90;;;17.50;88.60;;;17.97;64.55;99704.03;4932522;29;20071;-77
2023/07/02 03:08:35;;;;;;;24.95;9.20;;;17.60;88.70;;;18.04;64.71;99706.44;4931421;29;20060;-77
2023/07/02 03:11:02;;;;;;;16.23;8.38;;;17.60;88.50;;;18.09;64.50;99709.09;4931134;29;20047;-77
2023/07/02 03:13:29;;;;;;;19.23;9.27;;;17.60;88.50;;;18.10;64.93;99718.78;4931308;29;20044;-77
2023/07/02 03:15:56;;;;;;;18.80;8.45;;;17.60;88.80;;;18.12;64.32;99716.63;4932260;29;20040;-77
2023/07/02 03:18:25;;;;;;;17.90;8.75;;;17.60;88.60;;;18.14;64.33;99721.75;4930118;29;20110;-77
2023/07/02 03:20:52;;;;;;;24.15;9.27;;;17.70;88.60;;;18.08;64.56;99726.38;4939484;29;20146;-78
2023/07/02 03:23:19;;;;;;;20.42;10.82;;;17.60;88.40;;;18.10;64.46;99724.19;4951522;28;20075;-77
2023/07/02 03:25:46;;;;;;;21.27;9.65;;;17.60;88.50;;;18.13;64.14;99728.25;4951806;28;20054;-77
2023/07/02 03:28:14;;;;;;;19.95;9.75;;;17.60;88.30;;;18.05;64.02;99735.00;4951656;28;20050;-77
2023/07/02 03:30:41;;;;;;;18.35;8.90;;;17.60;88.20;;;18.08;64.34;99730.97;4951522;29;20424;-77
2023/07/02 03:33:10;;;;;;;17.40;9.23;;;17.60;88.50;;;18.11;64.46;99727.72;4951627;28;20050;-77
2023/07/02 03:35:38;;;;;;;18.17;9.60;;;17.60;88.70;;;18.11;64.40;99739.31;4941023;29;20050;-77
2023/07/02 03:38:06;;;;;;;21.88;10.52;;;17.60;88.60;;;18.10;64.46;99732.28;4940238;29;20048;-77
2023/07/02 03:40:33;;;;;;;18.95;10.05;;;17.60;88.70;;;18.07;64.81;99737.47;4932107;29;20055;-77
2023/07/02 03:43:00;;;;;;;20.90;10.35;;;17.60;88.70;;;18.07;64.26;99745.56;4931866;29;20511;-77
2023/07/02 03:45:27;;;;;;;24.15;11.35;;;17.60;88.60;;;18.09;64.45;99752.28;4932432;29;20119;-77
2023/07/02 03:47:54;;;;;;;26.35;10.25;;;17.60;88.80;;;18.12;64.44;99757.13;4932355;29;20043;-77
2023/07/02 03:50:22;;;;;;;23.17;11.30;;;17.60;88.70;;;18.06;64.02;99750.16;4932377;29;20102;-77
2023/07/02 03:52:50;;;;;;;22.90;11.05;;;17.60;88.30;;;18.07;64.13;99750.94;4939369;29;20106;-77
2023/07/02 03:55:18;;;;;;;19.75;10.65;;;17.60;88.30;;;18.10;64.33;99756.56;4943666;29;20071;-77
2023/07/02 03:57:45;;;;;;;23.25;11.02;;;17.60;88.50;;;18.10;64.61;99756.56;4935401;29;20492;-77
2023/07/02 04:00:13;;;;;;;22.38;11.00;;;17.60;88.80;;;18.10;64.66;99761.97;4948919;29;20047;-77
2023/07/02 04:02:43;;;;;;;26.92;11.50;;;17.60;88.80;;;18.10;64.13;99761.16;4951463;28;20078;-77
2023/07/02 04:05:10;;;;;;;23.85;10.27;;;17.60;88.40;;;18.09;64.42;99773.06;4951494;28;20047;-77
2023/07/02 04:07:38;;;;;;;25.92;12.27;;;17.60;88.80;;;17.97;64.43;99773.41;4945986;28;20054;-77
2023/07/02 04:10:08;;;;;;;29.00;11.80;;;17.50;88.80;;;17.92;64.82;99774.22;4936445;29;20062;-77
2023/07/02 04:12:35;;;;;;;25.60;11.82;;;17.50;88.90;;;17.98;64.87;99777.69;4912908;29;20077;-77
2023/07/02 04:15:03;;;;;;;27.10;12.32;;;17.50;89.20;;;18.01;64.63;99775.25;4913427;29;20090;-77
2023/07/02 04:17:30;;;;;;;24.83;12.55;;;17.50;88.90;;;18.06;64.95;99781.72;4913236;29;20048;-77
2023/07/02 04:20:03;;;;;;;23.95;12.55;;;17.60;88.90;;;18.01;64.67;99786.06;4912985;29;20123;-78
2023/07/02 04:22:30;;;;;;;24.73;12.32;;;17.50;88.90;;;18.03;64.38;99783.06;4912960;29;20132;-77
2023/07/02 04:24:58;;;;;;;26.23;11.68;;;17.60;88.70;;;18.02;64.90;99793.06;4928915;29;20054;-77
2023/07/02 04:27:26;;;;;;;26.23;12.98;;;17.60;88.90;;;18.06;64.61;99787.94;4943484;28;20051;-77
2023/07/02 04:29:55;;;;;;;24.98;12.32;;;17.60;88.90;;;18.07;64.66;99786.84;4954692;28;20078;-77
2023/07/02 04:32:22;;;;;;;25.92;13.05;;;17.60;88.90;;;18.07;65.20;99796.81;4954377;28;20043;-77
2023/07/02 04:34:50;;;;;;;28.23;12.90;;;17.60;89.20;;;18.07;65.00;99800.34;4954780;28;20098;-77
2023/07/02 04:37:17;;;;;;;24.60;12.95;;;17.60;88.90;;;18.05;64.65;99796.28;4954649;28;20054;-77
2023/07/02 04:39:44;;;;;;;26.15;12.55;;;17.60;88.80;;;18.07;65.00;99804.94;4954571;28;20492;-77
2023/07/02 04:42:14;;;;;;;27.85;13.48;;;17.60;89.10;;;18.08;64.88;99796.53;4939731;29;20109;-77
2023/07/02 04:44:44;;;;;;;25.92;13.57;;;17.60;88.90;;;18.05;64.81;99810.56;4947831;29;20040;-77
2023/07/02 04:47:11;;;;;;;25.15;13.10;;;17.60;88.80;;;18.05;64.96;99801.69;4954421;29;20058;-77
2023/07/02 04:49:38;;;;;;;33.05;14.82;;;17.60;89.00;;;18.06;64.80;99811.41;4954279;28;20130;-77
2023/07/02 04:52:06;;;;;;;31.48;13.75;;;17.60;89.10;;;18.06;65.25;99816.81;4954041;29;20055;-77
2023/07/02 04:54:33;;;;;;;35.42;14.88;;;17.60;89.40;;;18.08;65.06;99810.03;4954010;28;20054;-77
2023/07/02 04:57:00;;;;;;;29.50;14.13;;;17.60;89.30;;;18.13;64.89;99809.22;4937809;29;20520;-77
2023/07/02 04:59:28;;;;;;;28.27;14.27;;;17.70;89.10;;;18.13;65.29;99810.00;4953528;29;20078;-77
2023/07/02 05:01:56;;;;;;;27.90;13.13;;;17.70;89.10;;;18.15;65.22;99815.94;4953872;28;20134;-77
2023/07/02 05:04:23;;;;;;;27.95;14.40;;;17.70;89.30;;;18.20;64.97;99815.09;4953930;29;20385;-77
2023/07/02 05:06:50;;;;;;;26.83;13.80;;;17.80;89.00;;;18.21;64.81;99822.94;4936134;28;20043;-77
2023/07/02 05:09:18;;;;;;;30.65;13.57;;;17.80;88.90;;;18.27;64.78;99812.91;4932484;29;20476;-78
2023/07/02 05:11:45;;;;;;;29.77;13.95;;;17.80;88.80;;;18.33;65.43;99814.50;4938355;29;20129;-78
2023/07/02 05:14:12;;;;;;;32.75;14.57;;;17.90;89.20;;;18.38;65.25;99817.16;4945880;29;20048;-78
2023/07/02 05:16:39;;;;;;;32.30;14.65;;;18.00;88.90;;;18.43;64.91;99830.63;4953970;28;20047;-77
2023/07/02 05:19:08;;;;;;;28.95;13.52;;;18.10;88.50;;;18.65;65.03;99824.84;4953758;28;20055;-77
2023/07/02 05:21:35;;;;;;;32.08;14.68;;;18.40;88.10;;;18.81;64.19;99825.56;4953599;28;20055;-77
2023/07/02 05:24:02;;;;;;;32.60;14.77;;;18.60;87.40;;;18.84;64.14;99814.22;4953637;28;20047;-78
2023/07/02 05:26:29;;;;;;;32.70;15.40;;;18.60;87.10;;;18.81;64.05;99830.16;4949565;28;20043;-77
2023/07/02 05:28:57;;;;;;;28.80;14.52;;;18.70;87.00;;;18.83;64.38;99826.09;4948800;29;20131;-78
2023/07/02 05:31:24;;;;;;;30.98;15.32;;;18.70;87.10;;;18.93;63.52;99834.09;4953286;28;20583;-77
2023/07/02 05:33:51;;;;;;;34.63;15.45;;;18.80;86.30;;;18.83;63.56;99823.38;4953497;28;20123;-77
2023/07/02 05:36:20;;;;;;;32.47;15.48;;;18.70;86.40;;;18.78;64.08;99829.63;4950931;29;20082;-77
2023/07/02 05:38:47;;;;;;;29.67;15.48;;;18.60;86.90;;;18.80;64.42;99834.78;4933975;29;20122;-77
2023/07/02 05:41:19;;;;;;;29.27;14.77;;;18.60;87.10;;;18.84;64.54;99833.13;4933644;29;20504;-77
2023/07/02 05:43:47;;;;;;;28.70;15.82;;;18.60;87.50;;;18.93;64.64;99833.31;4936281;29;20040;-77
2023/07/02 05:46:15;;;;;;;29.88;14.88;;;18.70;87.60;;;18.91;63.94;99836.28;4951092;29;20040;-77
2023/07/02 05:48:42;;;;;;;36.00;16.75;;;18.70;87.00;;;18.85;64.16;99845.53;4946805;28;20067;-78
2023/07/02 05:51:09;;;;;;;28.05;16.10;;;18.70;86.70;;;18.94;64.38;99846.56;4944879;28;20448;-78
2023/07/02 05:53:38;;;;;;;34.50;16.85;;;18.80;86.90;;;19.15;64.23;99849.09;4953149;28;20106;-77
2023/07/02 05:56:05;;;;;;;32.78;16.15;;;19.00;86.70;;;19.29;63.70;99850.06;4947547;28;20782;-78
2023/07/02 05:58:33;;;;;;;34.40;16.88;;;19.20;85.90;;;19.34;63.63;99860.81;4934208;29;20142;-77
2023/07/02 06:01:01;;;;;;;40.92;17.17;;;19.30;85.70;;;19.31;62.20;99855.97;4933637;29;20131;-78
2023/07/02 06:03:28;;;;;;;31.77;16.25;;;19.30;84.50;;;19.28;63.14;99868.19;4933814;29;20058;-77
2023/07/02 06:05:55;;;;;;;32.35;15.93;;;19.20;85.00;;;19.26;62.69;99864.13;4940140;29;20051;-77
2023/07/02 06:08:22;;;;;;;34.80;17.38;;;19.20;84.70;;;19.38;62.85;99867.28;4946306;29;20051;-77
2023/07/02 06:10:51;;;;;;;32.33;16.88;;;19.30;84.80;;;19.44;62.94;99866.13;4944467;28;20130;-77
2023/07/02 06:13:18;;;;;;;36.53;16.67;;;19.40;85.00;;;19.51;61.58;99861.19;4952826;28;20118;-78
2023/07/02 06:15:46;;;;;;;34.17;16.58;;;19.50;83.30;;;19.52;62.12;99868.22;4952748;28;20047;-77
2023/07/02 06:18:14;;;;;;;32.70;16.45;;;19.60;83.50;;;19.51;62.04;99871.19;4952741;28;20075;-77
2023/07/02 06:20:41;;;;;;;37.83;16.80;;;19.60;83.20;;;19.54;61.79;99874.16;4952415;28;20053;-77
2023/07/02 06:23:08;;;;;;;31.13;16.45;;;19.60;83.40;;;19.57;61.43;99870.09;4946970;28;20126;-77
2023/07/02 06:25:35;;;;;;;34.03;16.77;;;19.70;83.50;;;19.50;62.28;99873.09;4945315;29;20047;-78
2023/07/02 06:28:04;;;;;;;34.40;17.05;;;19.60;83.50;;;19.61;61.76;99871.13;4952652;28;20123;-78
2023/07/02 06:30:31;;;;;;;35.83;17.33;;;19.70;83.00;;;19.69;61.43;99864.31;4952272;28;20054;-77
2023/07/02 06:32:59;;;;;;;33.63;17.20;;;19.80;82.80;;;19.75;61.39;99865.84;4952414;28;20574;-77
2023/07/02 06:35:26;;;;;;;35.28;16.42;;;19.90;82.70;;;19.80;61.10;99874.72;4952439;28;20416;-77
2023/07/02 06:37:53;;;;;;;35.58;14.93;;;19.90;82.40;;;19.83;60.18;99880.66;4942420;29;20834;-77
2023/07/02 06:40:22;;;;;;;35.70;15.75;;;19.90;81.20;;;19.83;59.97;99881.47;4940933;29;20047;-77
2023/07/02 06:42:49;;;;;;;31.23;15.43;;;19.90;80.80;;;19.78;59.91;99870.72;4932768;29;20046;-77
2023/07/02 06:45:18;;;;;;;29.90;14.30;;;19.90;80.80;;;19.55;57.52;99883.88;4933004;29;20054;-77
2023/07/02 06:47:45;;;;;;;30.02;13.95;;;19.70;78.20;;;19.63;57.60;99873.56;4933033;29;20051;-77
2023/07/02 06:50:12;;;;;;;27.88;13.48;;;19.70;78.60;;;19.75;56.46;99879.38;4932459;29;20130;-78
2023/07/02 06:52:39;;;;;;;29.50;13.48;;;19.80;77.00;;;19.94;57.19;99877.56;4940037;29;20048;-78
2023/07/02 06:55:07;;;;;;;30.55;12.98;;;20.10;77.90;;;20.16;57.30;99887.06;4948975;29;20043;-78
2023/07/02 06:57:34;;;;;;;27.20;12.18;;;20.30;77.10;;;20.19;52.04;99889.19;4952147;28;20065;-78
2023/07/02 07:00:03;;;;;;;26.25;12.00;;;20.40;71.10;;;20.32;54.24;99896.63;4952149;28;20112;-78
2023/07/02 07:02:32;;;;;;;25.08;11.35;;;20.60;73.70;;;20.38;51.74;99894.66;4951794;28;20051;-78
2023/07/02 07:04:59;;;;;;;25.42;11.60;;;20.70;70.20;;;20.56;52.58;99894.72;4951902;28;20067;-78
2023/07/02 07:07:27;;;;;;;22.73;11.68;;;20.90;71.30;;;20.64;49.52;99889.72;4940586;28;20047;-78
2023/07/02 07:09:54;;;;;;;25.75;10.80;;;21.00;67.10;;;20.57;50.95;99888.19;4943238;29;20676;-78
2023/07/02 07:12:22;;;;;;;27.98;11.88;;;20.90;69.30;;;20.58;50.42;99897.91;4932495;29;20135;-78
2023/07/02 07:14:49;;;;;;;29.70;12.15;;;20.90;68.40;;;20.67;51.60;99903.50;4932657;29;20167;-78
2023/07/02 07:17:16;;;;;;;24.63;11.80;;;21.00;69.40;;;20.80;52.08;99900.06;4933154;29;20048;-78
2023/07/02 07:19:45;;;;;;;32.05;12.38;;;21.10;69.90;;;20.73;50.78;99898.81;4943588;28;20039;-78
2023/07/02 07:22:12;;;;;;;30.08;11.60;;;21.00;68.50;;;20.66;48.85;99907.31;4940617;29;20079;-78
2023/07/02 07:24:39;;;;;;;23.90;11.30;;;20.90;66.30;;;20.67;51.50;99897.28;4950387;29;20423;-78
2023/07/02 07:27:07;;;;;;;24.55;12.40;;;20.90;69.40;;;20.70;47.80;99907.53;4951808;28;20518;-78
2023/07/02 07:29:34;;;;;;;25.58;11.98;;;20.90;65.50;;;20.52;49.24;99904.50;4951607;28;20143;-78
2023/07/02 07:32:01;;;;;;;22.90;11.68;;;20.70;66.60;;;20.64;49.92;99909.50;4951431;28;20130;-78
2023/07/02 07:34:28;;;;;;;31.10;12.23;;;20.80;67.70;;;20.68;50.09;99912.44;4943976;29;20134;-78
2023/07/02 07:36:57;;;;;;;23.65;11.45;;;20.80;67.90;;;20.71;50.73;99915.38;4943518;28;20047;-78
2023/07/02 07:39:24;;;;;;;26.25;12.02;;;20.80;68.90;;;20.73;50.19;99913.16;4951462;28;20559;-78
2023/07/02 07:41:51;;;;;;;27.77;12.32;;;20.90;68.20;;;20.77;49.46;99926.94;4943108;28;20129;-78
2023/07/02 07:44:18;;;;;;;28.00;12.00;;;21.00;66.80;;;20.71;49.94;99917.28;4927204;29;20508;-78
2023/07/02 07:46:45;;;;;;;30.15;12.73;;;20.90;67.70;;;20.56;49.23;99929.94;4941182;28;20088;-78
2023/07/02 07:49:14;;;;;;;25.88;12.15;;;20.70;66.70;;;20.56;50.06;99918.28;4948879;29;20556;-78
2023/07/02 07:51:41;;;;;;;24.35;12.00;;;20.70;67.70;;;20.62;50.40;99916.31;4951107;28;20122;-78
2023/07/02 07:54:10;;;;;;;28.23;11.93;;;20.80;68.10;;;20.56;51.12;99916.38;4951419;28;20040;-78
2023/07/02 07:56:37;;;;;;;25.30;11.40;;;20.70;68.70;;;20.37;49.02;99923.63;4950154;29;20054;-78
2023/07/02 07:59:04;;;;;;;26.33;11.80;;;20.50;66.60;;;20.25;50.22;99923.22;4944734;28;20114;-78
2023/07/02 08:01:32;;;;;;;24.05;11.65;;;20.30;68.30;;;20.25;51.70;99934.06;4945041;28;20129;-78
2023/07/02 08:03:59;;;;;;;23.83;10.38;;;20.20;70.10;;;19.98;48.02;99935.44;4955236;28;20593;-78
2023/07/02 08:06:27;;;;;;;22.77;10.43;;;20.00;65.40;;;19.79;47.12;99939.97;4955142;28;20122;-77
2023/07/02 08:08:54;;;;;;;24.38;10.45;;;19.70;64.90;;;19.83;48.76;99940.22;4955064;28;20043;-77
2023/07/02 08:11:22;;;;;;;24.35;10.40;;;19.70;66.80;;;19.90;46.98;99944.19;4953443;29;20157;-77
2023/07/02 08:13:50;;;;;;;23.67;10.48;;;19.80;65.10;;;19.92;47.70;99941.22;4954321;28;20046;-77
2023/07/02 08:16:17;;;;;;;22.73;10.57;;;19.90;65.60;;;20.02;47.73;99941.91;4943376;29;20074;-77
2023/07/02 08:18:44;;;;;;;25.23;10.73;;;20.00;65.30;;;20.13;48.88;99941.78;4954695;28;20165;-78
2023/07/02 08:21:11;;;;;;;25.95;10.73;;;20.10;66.50;;;20.16;48.54;99938.53;4954513;28;20419;-78
2023/07/02 08:23:38;;;;;;;24.83;10.90;;;20.20;66.30;;;20.08;47.88;99958.91;4954785;28;20105;-77
2023/07/02 08:26:05;;;;;;;26.13;10.70;;;20.20;65.20;;;20.16;48.29;99952.06;4954655;28;20403;-78
2023/07/02 08:28:34;;;;;;;25.50;10.63;;;20.30;65.50;;;20.20;47.09;99953.06;4951665;28;20117;-77
2023/07/02 08:31:01;;;;;;;24.73;10.48;;;20.30;63.70;;;20.29;46.51;99954.06;4943003;29;20055;-77
2023/07/02 08:33:28;;;;;;;25.27;10.45;;;20.50;63.20;;;20.42;46.90;99958.00;4954205;29;20486;-78
2023/07/02 08:35:57;;;;;;;22.77;10.10;;;20.60;63.10;;;20.35;47.76;99965.63;4954619;28;20118;-77
2023/07/02 08:38:24;;;;;;;21.33;8.50;;;20.50;64.20;;;20.23;44.00;99963.34;4954528;28;20047;-78
2023/07/02 08:40:51;;;;;;;20.33;8.93;;;20.30;60.10;;;20.12;45.71;99956.44;4954373;29;20047;-78
2023/07/02 08:43:19;;;;;;;21.98;9.15;;;20.20;62.00;;;20.24;45.32;99965.75;4954464;28;20126;-78
2023/07/02 08:45:48;;;;;;;21.88;8.82;;;20.30;61.70;;;20.29;45.81;99959.47;4946533;28;20032;-77
2023/07/02 08:48:22;;;;;;;22.92;8.70;;;20.40;61.60;;;20.40;46.31;99965.56;4942906;29;20127;-77
2023/07/02 08:50:50;;;;;;;21.92;9.32;;;20.60;62.70;;;20.58;44.92;99964.84;4934957;29;20075;-78
2023/07/02 08:53:17;;;;;;;25.60;8.90;;;20.80;60.70;;;20.61;45.75;99969.72;4935170;29;20127;-77
2023/07/02 08:55:44;;;;;;;19.52;8.80;;;20.80;61.60;;;20.77;47.21;99968.41;4935142;29;20122;-78
2023/07/02 08:58:11;;;;;;;24.00;9.18;;;21.00;62.80;;;20.64;42.36;99965.59;4935040;29;20095;-78
2023/07/02 09:00:39;;;;;;;18.20;7.85;;;20.90;57.20;;;20.62;44.92;99970.50;4934762;29;20136;-78
2023/07/02 09:03:16;;;;;;;16.25;8.23;;;20.80;59.90;;;20.66;45.65;99968.84;4942202;29;20397;-77
2023/07/02 09:05:52;;;;;;;25.92;8.30;;;20.80;60.80;;;20.65;45.68;99973.47;4945265;29;20051;-78
2023/07/02 09:08:26;;;;;;;20.88;8.60;;;20.80;60.70;;;20.70;46.03;99978.81;4933374;29;21837;-77
2023/07/02 09:10:53;;;;;;;19.30;8.07;;;20.80;61.60;;;20.62;45.70;99971.31;4915575;29;20588;-77
2023/07/02 09:13:20;;;;;;;26.92;8.73;;;20.70;61.70;;;20.54;45.40;99975.47;4915279;29;20044;-78
2023/07/02 09:15:48;;;;;;;14.95;7.25;;;20.70;61.00;;;20.44;44.10;99980.97;4915895;29;20128;-77
2023/07/02 09:18:21;;;;;;;19.95;7.82;;;20.50;59.00;;;20.47;45.04;99977.72;4916564;29;20044;-77
2023/07/02 09:20:52;;;;;;;17.20;8.20;;;20.50;60.70;;;20.48;45.23;99981.25;4936251;29;20126;-77
2023/07/02 09:23:19;;;;;;;20.33;8.23;;;20.60;60.70;;;20.45;43.43;99982.59;4936218;29;20072;-78
2023/07/02 09:25:46;;;;;;;20.30;9.18;;;20.60;59.40;;;20.54;45.32;99980.88;4934328;29;20103;-77
2023/07/02 09:28:19;;;;;;;21.42;8.10;;;20.60;60.40;;;20.64;43.23;99979.94;4934609;29;20044;-77
2023/07/02 09:30:55;;;;;;;16.17;7.97;;;20.80;58.00;;;20.79;45.78;99970.84;4938843;29;20119;-78
2023/07/02 09:33:25;;;;;;;20.65;9.02;;;21.00;60.90;;;20.89;45.56;99975.31;4952284;29;20125;-77
2023/07/02 09:35:52;;;;;;;23.35;9.95;;;21.20;60.30;;;21.01;46.86;99971.06;4953622;28;20423;-77
2023/07/02 09:38:21;;;;;;;22.75;8.45;;;21.40;62.00;;;21.07;45.44;99969.09;4943017;29;20486;-78
2023/07/02 09:40:50;;;;;;;16.80;8.38;;;21.40;60.20;;;20.98;43.02;99973.53;4945259;29;20744;-77
2023/07/02 09:43:19;;;;;;;19.13;8.02;;;21.30;57.50;;;21.07;44.82;99972.59;4953569;29;20074;-78
2023/07/02 09:45:48;;;;;;;21.40;8.82;;;21.40;58.90;;;21.05;44.48;99969.38;4953375;29;20478;-77
2023/07/02 09:48:16;;;;;;;22.48;9.38;;;21.30;58.80;;;21.04;45.41;99962.34;4953359;28;20518;-78
2023/07/02 09:50:47;;;;;;;21.95;8.85;;;21.30;60.30;;;20.82;45.59;99973.75;4953065;28;20544;-77
2023/07/02 09:53:14;;;;;;;23.08;9.10;;;21.10;60.10;;;20.75;44.44;99983.34;4950895;28;20063;-77
2023/07/02 09:55:44;;;;;;;23.85;9.45;;;20.90;59.20;;;20.55;44.74;99974.38;4941213;29;20256;-77
2023/07/02 09:58:12;;;;;;;20.52;8.43;;;20.70;59.70;;;20.51;44.22;99980.66;4937573;29;20051;-77
2023/07/02 10:00:40;;;;;;;24.73;9.48;;;20.60;59.30;;;20.50;45.14;99979.06;4940358;29;20044;-77
2023/07/02 10:03:07;;;;;;;21.33;8.93;;;20.60;60.40;;;20.55;45.32;99979.00;4933835;29;20083;-77
2023/07/02 10:05:35;;;;;;;23.65;9.57;;;20.60;60.80;;;20.49;44.01;99982.84;4933702;29;20401;-77
2023/07/02 10:08:17;;;;;;;18.88;9.98;;;20.60;58.70;;;20.29;44.33;99991.97;4933734;29;20079;-77
2023/07/02 10:10:44;;;;;;;22.95;11.68;;;20.40;59.50;;;20.16;44.97;99995.38;4937706;29;20044;-77
2023/07/02 10:13:12;;;;;;;22.83;11.00;;;20.30;59.80;;;19.93;45.89;100003.16;4950284;29;20043;-77